createdAt,value
2019-05-21T00:00:50.292Z,100540.23
2019-05-21T00:05:44.246Z,100537.63
2019-05-21T00:10:38.223Z,100535.66
2019-05-21T00:15:32.259Z,100537.88
2019-05-21T00:20:26.309Z,100537.17
2019-05-21T00:25:20.258Z,100529.80
2019-05-21T00:30:51.749Z,100531.97
2019-05-21T00:36:25.410Z,100536.87
2019-05-21T00:41:56.873Z,100530.64
2019-05-21T00:46:50.870Z,100525.60
2019-05-21T00:51:45.044Z,100525.72
2019-05-21T00:56:39.020Z,100517.81
2019-05-21T01:01:32.987Z,100520.48
2019-05-21T01:06:26.993Z,100515.88
2019-05-21T01:11:21.049Z,100521.52
2019-05-21T01:16:15.026Z,100532.78
2019-05-21T01:21:09.128Z,100529.84
2019-05-21T01:26:03.202Z,100533.38
2019-05-21T01:30:57.162Z,100529.02
2019-05-21T01:35:51.757Z,100531.55
2019-05-21T01:40:45.711Z,100525.81
2019-05-21T01:45:39.682Z,100527.48
2019-05-21T01:50:33.649Z,100527.43
2019-05-21T01:55:27.733Z,100522.65
2019-05-21T02:00:21.762Z,100520.06
2019-05-21T02:05:15.713Z,100516.62
2019-05-21T02:10:09.867Z,100518.61
2019-05-21T02:15:05.363Z,100515.95
2019-05-21T02:19:59.336Z,100516.91
2019-05-21T02:24:53.280Z,100521.32
2019-05-21T02:29:47.245Z,100522.19
2019-05-21T02:34:41.243Z,100529.33
2019-05-21T02:39:35.384Z,100529.88
2019-05-21T02:44:29.476Z,100540.12
2019-05-21T02:49:23.441Z,100545.94
2019-05-21T02:54:17.527Z,100544.95
2019-05-21T02:59:11.485Z,100552.94
2019-05-21T03:04:05.656Z,100549.23
2019-05-21T03:08:59.719Z,100550.55
2019-05-21T03:13:53.780Z,100559.75
2019-05-21T03:18:47.778Z,100554.19
2019-05-21T03:23:41.732Z,100561.68
2019-05-21T03:28:35.849Z,100567.86
2019-05-21T03:33:29.800Z,100563.58
2019-05-21T03:38:23.808Z,100569.05
2019-05-21T03:43:17.769Z,100578.59
2019-05-21T03:48:11.741Z,100578.52
2019-05-21T03:53:05.697Z,100569.89
2019-05-21T03:57:59.661Z,100575.77
2019-05-21T04:02:53.694Z,100579.08
2019-05-21T04:07:47.690Z,100575.98
2019-05-21T04:12:41.660Z,100583.22
2019-05-21T04:17:40.744Z,100575.72
2019-05-21T04:22:36.658Z,100578.31
2019-05-21T04:27:30.614Z,100575.44
2019-05-21T04:32:24.583Z,100576.48
2019-05-21T04:37:18.579Z,100569.06
2019-05-21T04:42:12.534Z,100575.66
2019-05-21T04:47:06.515Z,100570.45
2019-05-21T04:52:00.576Z,100562.05
2019-05-21T04:56:54.535Z,100559.30
2019-05-21T05:01:48.730Z,100574.31
2019-05-21T05:06:42.720Z,100573.82
2019-05-21T05:11:36.813Z,100588.18
2019-05-21T05:16:30.888Z,100582.73
2019-05-21T05:21:24.980Z,100588.96
2019-05-21T05:26:18.944Z,100598.83
2019-05-21T05:31:15.504Z,100608.58
2019-05-21T05:36:09.116Z,100618.74
2019-05-21T05:41:03.176Z,100613.83
2019-05-21T05:45:57.264Z,100612.50
2019-05-21T05:50:53.138Z,100629.32
2019-05-21T05:55:47.199Z,100630.81
2019-05-21T06:00:41.212Z,100637.39
2019-05-21T06:05:35.471Z,100641.45
2019-05-21T06:10:29.468Z,100644.31
2019-05-21T06:15:23.457Z,100641.11
2019-05-21T06:20:18.056Z,100641.94
2019-05-21T06:25:12.350Z,100644.39
2019-05-21T06:30:07.546Z,100656.95
2019-05-21T06:35:03.532Z,100654.34
2019-05-21T06:39:57.791Z,100659.13
2019-05-21T06:44:51.749Z,100669.35
2019-05-21T06:49:45.720Z,100674.54
2019-05-21T06:54:39.768Z,100678.75
2019-05-21T06:59:33.726Z,100685.75
2019-05-21T07:04:27.758Z,100686.73
2019-05-21T07:09:21.726Z,100695.91
2019-05-21T07:14:15.783Z,100694.78
2019-05-21T07:19:10.319Z,100711.20
2019-05-21T07:24:04.330Z,100717.43
2019-05-21T07:28:58.437Z,100723.66
2019-05-21T07:33:52.495Z,100731.00
2019-05-21T07:38:53.094Z,100739.33
2019-05-21T07:43:43.371Z,100746.54
2019-05-21T07:48:37.321Z,100755.52
2019-05-21T07:53:31.287Z,100756.63
2019-05-21T07:58:25.433Z,100762.95
2019-05-21T08:03:19.379Z,100758.31
2019-05-21T08:08:13.483Z,100759.58
2019-05-21T08:13:07.468Z,100763.78
2019-05-21T08:18:01.594Z,100766.23
2019-05-21T08:22:55.560Z,100780.60
2019-05-21T08:27:50.146Z,100787.35
2019-05-21T08:32:44.241Z,100798.01
2019-05-21T08:37:38.263Z,100812.99
2019-05-21T08:42:32.306Z,100821.26
2019-05-21T08:47:26.383Z,100823.16
2019-05-21T08:52:21.978Z,100834.58
2019-05-21T08:57:16.477Z,100827.63
2019-05-21T09:02:10.626Z,100841.00
2019-05-21T09:07:04.796Z,100834.85
2019-05-21T09:11:58.898Z,100844.67
2019-05-21T09:17:05.902Z,100853.81
2019-05-21T09:21:59.954Z,100859.94
2019-05-21T09:26:54.010Z,100865.94
2019-05-21T09:31:47.993Z,100863.92
2019-05-21T09:36:42.294Z,100871.36
2019-05-21T09:41:36.266Z,100875.23
2019-05-21T09:46:30.351Z,100877.84
2019-05-21T09:51:24.437Z,100873.41
2019-05-21T09:56:37.074Z,100876.92
2019-05-21T10:52:51.051Z,100916.66
2019-05-21T10:57:45.110Z,100921.58
2019-05-21T11:02:53.258Z,100931.95
2019-05-21T11:07:47.212Z,100931.25
2019-05-21T11:12:41.244Z,100936.91
2019-05-21T11:17:49.635Z,100942.34
2019-05-21T11:22:31.275Z,100948.30
2019-05-21T11:27:25.366Z,100950.34
2019-05-21T11:32:19.476Z,100960.18
2019-05-21T11:37:13.528Z,100960.45
2019-05-21T11:42:07.598Z,100969.95
2019-05-21T11:47:01.770Z,100978.48
2019-05-21T11:51:55.845Z,100977.95
2019-05-21T11:56:49.832Z,100982.30
2019-05-21T12:01:43.910Z,100992.16
2019-05-21T12:06:37.983Z,100985.70
2019-05-21T12:11:31.995Z,100997.88
2019-05-21T12:16:25.997Z,101002.66
2019-05-21T12:21:20.154Z,101008.05
2019-05-21T12:26:14.176Z,101009.33
2019-05-21T12:31:08.151Z,101012.48
2019-05-21T12:36:02.444Z,101025.16
2019-05-21T12:40:56.528Z,101027.82
2019-05-21T12:45:50.784Z,101027.59
2019-05-21T12:50:44.956Z,101034.93
2019-05-21T12:55:39.019Z,101039.41
2019-05-21T13:00:33.693Z,101048.31
2019-05-21T13:05:28.068Z,101052.58
2019-05-21T13:10:22.133Z,101058.82
2019-05-21T13:15:16.240Z,101063.64
2019-05-21T13:20:10.794Z,101058.92
2019-05-21T13:25:05.713Z,101066.73
2019-05-21T13:29:59.703Z,101073.59
2019-05-21T13:34:53.812Z,101076.69
2019-05-21T13:39:50.361Z,101085.90
2019-05-21T13:44:43.807Z,101085.36
2019-05-21T13:49:37.926Z,101085.86
2019-05-21T13:54:32.046Z,101091.19
2019-05-21T13:59:26.042Z,101103.68
2019-05-21T14:04:20.431Z,101107.02
2019-05-21T14:09:14.580Z,101102.48
2019-05-21T14:14:08.767Z,101109.92
2019-05-21T14:19:02.992Z,101114.64
2019-05-21T14:23:57.102Z,101119.48
2019-05-21T14:28:51.065Z,101123.25
2019-05-21T14:33:46.874Z,101124.45
2019-05-21T14:38:41.092Z,101128.53
2019-05-21T14:43:35.194Z,101132.10
2019-05-21T14:48:29.171Z,101130.72
2019-05-21T14:53:23.169Z,101134.14
2019-05-21T14:58:17.251Z,101136.73
2019-05-21T15:03:24.225Z,101138.33
2019-05-21T15:08:07.522Z,101141.15
2019-05-21T15:13:05.718Z,101143.77
2019-05-21T15:17:57.603Z,101145.15
2019-05-21T15:22:51.906Z,101146.48
2019-05-21T15:27:45.990Z,101148.34
2019-05-21T15:32:40.119Z,101147.89
2019-05-21T15:37:34.307Z,101158.67
2019-05-21T15:42:28.531Z,101157.83
2019-05-21T15:47:22.790Z,101151.83
2019-05-21T15:52:16.884Z,101160.38
2019-05-21T15:57:11.165Z,101159.25
2019-05-21T16:02:05.598Z,101161.15
2019-05-21T16:06:59.702Z,101169.69
2019-05-21T16:11:53.703Z,101169.91
2019-05-21T16:16:47.705Z,101173.92
2019-05-21T16:21:41.795Z,101172.84
2019-05-21T16:26:35.782Z,101183.05
2019-05-21T16:31:29.764Z,101179.77
2019-05-21T16:36:23.766Z,101176.73
2019-05-21T16:41:17.854Z,101180.23
2019-05-21T16:46:11.863Z,101182.96
2019-05-21T16:51:05.853Z,101186.75
2019-05-21T16:55:59.859Z,101189.03
2019-05-21T17:00:54.101Z,101189.23
2019-05-21T17:05:48.222Z,101190.36
2019-05-21T17:10:42.556Z,101192.80
2019-05-21T17:15:36.510Z,101196.33
2019-05-21T17:20:33.989Z,101193.06
2019-05-21T17:25:26.690Z,101200.07
2019-05-21T17:30:20.855Z,101198.54
2019-05-21T17:35:15.198Z,101204.25
2019-05-21T17:40:09.468Z,101211.66
2019-05-21T17:45:05.832Z,101207.92
2019-05-21T17:49:59.943Z,101212.52
2019-05-21T17:54:57.070Z,101216.49
2019-05-21T17:59:50.407Z,101215.47
2019-05-21T18:04:44.565Z,101214.62
2019-05-21T18:09:39.665Z,101216.09
2019-05-21T18:14:34.971Z,101219.38
2019-05-21T18:19:29.599Z,101222.63
2019-05-21T18:24:24.194Z,101223.14
2019-05-21T18:29:18.402Z,101239.38
2019-05-21T18:34:12.653Z,101236.81
2019-05-21T18:39:07.013Z,101248.33
2019-05-21T18:44:01.498Z,101246.98
2019-05-21T18:48:55.566Z,101250.75
2019-05-21T18:53:49.898Z,101254.37
2019-05-21T18:58:44.086Z,101259.44
2019-05-21T19:03:38.199Z,101256.56
2019-05-21T19:08:32.435Z,101270.22
2019-05-21T19:13:26.657Z,101271.81
2019-05-21T19:18:20.641Z,101270.70
2019-05-21T19:23:14.938Z,101282.58
2019-05-21T19:28:09.004Z,101281.01
2019-05-21T19:33:03.215Z,101292.86
2019-05-21T19:37:57.417Z,101297.34
2019-05-21T19:42:55.275Z,101306.91
2019-05-21T19:47:47.837Z,101305.11
2019-05-21T19:52:42.009Z,101309.45
2019-05-21T19:57:37.793Z,101318.04
2019-05-21T20:02:32.478Z,101317.94
2019-05-21T20:07:27.358Z,101329.69
2019-05-21T20:12:23.361Z,101331.99
2019-05-21T20:17:17.740Z,101334.02
2019-05-21T20:22:11.969Z,101343.48
2019-05-21T20:27:06.650Z,101346.50
2019-05-21T20:32:00.749Z,101353.41
2019-05-21T20:36:55.110Z,101358.84
2019-05-21T20:41:49.075Z,101362.59
2019-05-21T20:46:43.520Z,101366.97
2019-05-21T20:51:37.671Z,101357.89
2019-05-21T20:56:33.100Z,101350.97
2019-05-21T21:01:27.535Z,101355.20
2019-05-21T21:06:34.839Z,101357.59
2019-05-21T21:11:18.162Z,101352.40
2019-05-21T21:16:13.008Z,101353.10
2019-05-21T21:21:07.154Z,101346.44
2019-05-21T21:26:01.155Z,101341.36
2019-05-21T21:30:55.439Z,101352.12
2019-05-21T21:35:50.008Z,101354.58
2019-05-21T21:40:44.175Z,101356.98
2019-05-21T21:45:38.165Z,101357.69
2019-05-21T21:50:32.755Z,101365.31
2019-05-21T21:55:26.832Z,101359.84
2019-05-21T22:00:58.142Z,101368.56
2019-05-21T22:05:52.332Z,101369.41
2019-05-21T22:10:46.504Z,101371.58
2019-05-21T22:15:40.485Z,101372.06
2019-05-21T22:20:35.034Z,101384.62
2019-05-21T22:25:29.343Z,101383.05
2019-05-21T22:30:24.226Z,101383.88
2019-05-21T22:35:18.410Z,101382.80
2019-05-21T22:40:13.084Z,101386.09
2019-05-21T22:45:09.484Z,101378.45
2019-05-21T22:50:05.472Z,101375.20
2019-05-21T22:54:59.541Z,101377.37
2019-05-21T22:59:53.513Z,101382.45
2019-05-21T23:04:47.885Z,101380.63
2019-05-21T23:09:41.962Z,101376.41
2019-05-21T23:14:36.715Z,101376.64
2019-05-21T23:19:31.243Z,101370.38
2019-05-21T23:24:25.225Z,101370.59
2019-05-21T23:29:19.600Z,101377.13
2019-05-21T23:34:13.757Z,101376.14
2019-05-21T23:39:09.654Z,101383.53
2019-05-21T23:44:05.336Z,101379.89
2019-05-21T23:48:59.339Z,101371.81
2019-05-21T23:53:53.781Z,101377.97
2019-05-21T23:58:48.303Z,101383.03
